Terminal Aerodrome Forecast
Issued by NWS

Home | Current Version | Previous Version | Text Only | Print | Product List | Glossary On
Versions: 1 2 3 4 5 6 7 8 9 10 11 12 13 14 15 16
000
FTUS43 KUNR 241700
TAFGCC
TAF
KGCC 241724Z 2418/2518 25011KT P6SM SCT060
     FM250400 30011KT 2SM -SN BR OVC011
     FM250900 31015KT 1SM -SN OVC007=

USA.gov is the U.S. government's official web portal to all federal, state and local government web resources and services.